sensor_id;sensor_type;location;lat;lon;timestamp;temperature;humidity
8459;DHT22;4266;48.816;9.154;2023-03-16T00:01:05;-0.30;99.90
8459;DHT22;4266;48.816;9.154;2023-03-16T00:03:31;-0.40;99.90
8459;DHT22;4266;48.816;9.154;2023-03-16T00:05:56;-0.40;99.90
8459;DHT22;4266;48.816;9.154;2023-03-16T00:08:22;-0.50;99.90
8459;DHT22;4266;48.816;9.154;2023-03-16T00:10:48;-0.40;99.90
8459;DHT22;4266;48.816;9.154;2023-03-16T00:13:15;-0.40;99.90
8459;DHT22;4266;48.816;9.154;2023-03-16T00:15:41;-0.40;99.90
8459;DHT22;4266;48.816;9.154;2023-03-16T00:18:06;-0.30;99.90
8459;DHT22;4266;48.816;9.154;2023-03-16T00:20:32;-0.30;99.90
8459;DHT22;4266;48.816;9.154;2023-03-16T00:22:57;-0.20;99.90
8459;DHT22;4266;48.816;9.154;2023-03-16T00:25:24;-0.20;99.90
8459;DHT22;4266;48.816;9.154;2023-03-16T00:27:50;-0.20;99.90
8459;DHT22;4266;48.816;9.154;2023-03-16T00:30:17;-0.20;99.90
8459;DHT22;4266;48.816;9.154;2023-03-16T00:32:42;-0.20;99.90
8459;DHT22;4266;48.816;9.154;2023-03-16T00:35:09;-0.20;99.90
8459;DHT22;4266;48.816;9.154;2023-03-16T00:37:35;-0.20;99.90
8459;DHT22;4266;48.816;9.154;2023-03-16T00:40:00;-0.20;99.90
8459;DHT22;4266;48.816;9.154;2023-03-16T00:42:29;-0.20;99.90
8459;DHT22;4266;48.816;9.154;2023-03-16T00:44:53;-0.20;99.90
8459;DHT22;4266;48.816;9.154;2023-03-16T00:47:19;-0.10;99.90
8459;DHT22;4266;48.816;9.154;2023-03-16T00:49:44;-0.10;99.90
8459;DHT22;4266;48.816;9.154;2023-03-16T00:52:11;-0.10;99.90
8459;DHT22;4266;48.816;9.154;2023-03-16T00:54:37;-0.10;99.90
8459;DHT22;4266;48.816;9.154;2023-03-16T00:57:03;-0.10;99.90
8459;DHT22;4266;48.816;9.154;2023-03-16T00:59:29;-0.10;99.90
8459;DHT22;4266;48.816;9.154;2023-03-16T01:01:55;-0.10;99.90
8459;DHT22;4266;48.816;9.154;2023-03-16T01:04:20;-0.20;99.90
8459;DHT22;4266;48.816;9.154;2023-03-16T01:06:47;-0.20;99.90
8459;DHT22;4266;48.816;9.154;2023-03-16T01:09:13;-0.20;99.90
8459;DHT22;4266;48.816;9.154;2023-03-16T01:11:39;-0.20;99.90
8459;DHT22;4266;48.816;9.154;2023-03-16T01:14:05;-0.20;99.90
8459;DHT22;4266;48.816;9.154;2023-03-16T01:16:31;-0.20;99.90
8459;DHT22;4266;48.816;9.154;2023-03-16T01:18:57;-0.20;99.90
8459;DHT22;4266;48.816;9.154;2023-03-16T01:21:23;-0.20;99.90
8459;DHT22;4266;48.816;9.154;2023-03-16T01:23:48;-0.20;99.90
8459;DHT22;4266;48.816;9.154;2023-03-16T01:26:14;-0.20;99.90
8459;DHT22;4266;48.816;9.154;2023-03-16T01:28:40;-0.30;99.90
8459;DHT22;4266;48.816;9.154;2023-03-16T01:31:07;-0.30;99.90
8459;DHT22;4266;48.816;9.154;2023-03-16T01:33:32;-0.40;99.90
8459;DHT22;4266;48.816;9.154;2023-03-16T01:35:59;-0.40;99.90
8459;DHT22;4266;48.816;9.154;2023-03-16T01:38:24;-0.50;99.90
8459;DHT22;4266;48.816;9.154;2023-03-16T01:40:50;-0.50;99.90
8459;DHT22;4266;48.816;9.154;2023-03-16T01:43:18;-0.40;99.90
8459;DHT22;4266;48.816;9.154;2023-03-16T01:45:56;-0.40;99.90
8459;DHT22;4266;48.816;9.154;2023-03-16T01:48:19;-0.30;99.90
8459;DHT22;4266;48.816;9.154;2023-03-16T01:50:43;-0.40;99.90
8459;DHT22;4266;48.816;9.154;2023-03-16T01:53:09;-0.30;99.90
8459;DHT22;4266;48.816;9.154;2023-03-16T01:55:35;-0.30;99.90
8459;DHT22;4266;48.816;9.154;2023-03-16T01:58:00;-0.30;99.90
8459;DHT22;4266;48.816;9.154;2023-03-16T02:00:26;-0.30;99.90
8459;DHT22;4266;48.816;9.154;2023-03-16T02:02:54;-0.40;99.90
8459;DHT22;4266;48.816;9.154;2023-03-16T02:05:20;-0.40;99.90
8459;DHT22;4266;48.816;9.154;2023-03-16T02:07:46;-0.40;99.90
8459;DHT22;4266;48.816;9.154;2023-03-16T02:10:11;-0.30;99.90
8459;DHT22;4266;48.816;9.154;2023-03-16T02:12:37;-0.40;99.90
8459;DHT22;4266;48.816;9.154;2023-03-16T02:15:04;-0.30;99.90
8459;DHT22;4266;48.816;9.154;2023-03-16T02:17:31;-0.30;99.90
8459;DHT22;4266;48.816;9.154;2023-03-16T02:22:31;-0.30;99.90
8459;DHT22;4266;48.816;9.154;2023-03-16T02:24:57;-0.30;99.90
8459;DHT22;4266;48.816;9.154;2023-03-16T02:27:34;-0.40;99.90
8459;DHT22;4266;48.816;9.154;2023-03-16T02:30:14;-0.40;99.90
8459;DHT22;4266;48.816;9.154;2023-03-16T02:32:39;-0.50;99.90
8459;DHT22;4266;48.816;9.154;2023-03-16T02:35:05;-0.40;99.90
8459;DHT22;4266;48.816;9.154;2023-03-16T02:37:31;-0.50;99.90
8459;DHT22;4266;48.816;9.154;2023-03-16T02:39:57;-0.40;99.90
8459;DHT22;4266;48.816;9.154;2023-03-16T02:42:22;-0.40;99.90
8459;DHT22;4266;48.816;9.154;2023-03-16T02:44:51;-0.40;99.90
8459;DHT22;4266;48.816;9.154;2023-03-16T02:47:22;-0.40;99.90
8459;DHT22;4266;48.816;9.154;2023-03-16T02:49:45;-0.40;99.90
8459;DHT22;4266;48.816;9.154;2023-03-16T02:52:11;-0.50;99.90
8459;DHT22;4266;48.816;9.154;2023-03-16T02:54:36;-0.40;99.90
8459;DHT22;4266;48.816;9.154;2023-03-16T02:57:02;-0.40;99.90
8459;DHT22;4266;48.816;9.154;2023-03-16T02:59:28;-0.40;99.90
8459;DHT22;4266;48.816;9.154;2023-03-16T03:01:54;-0.40;99.90
8459;DHT22;4266;48.816;9.154;2023-03-16T03:04:20;-0.40;99.90
8459;DHT22;4266;48.816;9.154;2023-03-16T03:06:46;-0.40;99.90
8459;DHT22;4266;48.816;9.154;2023-03-16T03:09:12;-0.30;99.90
8459;DHT22;4266;48.816;9.154;2023-03-16T03:11:38;-0.30;99.90
8459;DHT22;4266;48.816;9.154;2023-03-16T03:14:03;-0.40;99.90
8459;DHT22;4266;48.816;9.154;2023-03-16T03:16:29;-0.40;99.90
8459;DHT22;4266;48.816;9.154;2023-03-16T03:18:55;-0.40;99.90
8459;DHT22;4266;48.816;9.154;2023-03-16T03:21:20;-0.40;99.90
8459;DHT22;4266;48.816;9.154;2023-03-16T03:23:46;-0.40;99.90
8459;DHT22;4266;48.816;9.154;2023-03-16T03:26:12;-0.40;99.90
8459;DHT22;4266;48.816;9.154;2023-03-16T03:28:38;-0.40;99.90
8459;DHT22;4266;48.816;9.154;2023-03-16T03:31:03;-0.40;99.90
8459;DHT22;4266;48.816;9.154;2023-03-16T03:33:29;-0.40;99.90
8459;DHT22;4266;48.816;9.154;2023-03-16T03:35:56;-0.50;99.90
8459;DHT22;4266;48.816;9.154;2023-03-16T03:38:22;-0.50;99.90
8459;DHT22;4266;48.816;9.154;2023-03-16T03:40:50;-0.40;99.90
8459;DHT22;4266;48.816;9.154;2023-03-16T03:43:15;-0.40;99.90
8459;DHT22;4266;48.816;9.154;2023-03-16T03:45:42;-0.50;99.90
8459;DHT22;4266;48.816;9.154;2023-03-16T03:48:08;-0.50;99.90
8459;DHT22;4266;48.816;9.154;2023-03-16T03:50:34;-0.40;99.90
8459;DHT22;4266;48.816;9.154;2023-03-16T03:53:00;-0.40;99.90
8459;DHT22;4266;48.816;9.154;2023-03-16T03:55:26;-0.40;99.90
8459;DHT22;4266;48.816;9.154;2023-03-16T03:57:51;-0.40;99.90
8459;DHT22;4266;48.816;9.154;2023-03-16T04:00:18;-0.40;99.90
8459;DHT22;4266;48.816;9.154;2023-03-16T04:02:44;-0.40;99.90
8459;DHT22;4266;48.816;9.154;2023-03-16T04:05:09;-0.40;99.90
8459;DHT22;4266;48.816;9.154;2023-03-16T04:07:35;-0.40;99.90
8459;DHT22;4266;48.816;9.154;2023-03-16T04:10:01;-0.40;99.90
8459;DHT22;4266;48.816;9.154;2023-03-16T04:12:28;-0.40;99.90
8459;DHT22;4266;48.816;9.154;2023-03-16T04:14:53;-0.40;99.90
8459;DHT22;4266;48.816;9.154;2023-03-16T04:17:19;-0.40;99.90
8459;DHT22;4266;48.816;9.154;2023-03-16T04:19:45;-0.40;99.90
8459;DHT22;4266;48.816;9.154;2023-03-16T04:22:11;-0.40;99.90
8459;DHT22;4266;48.816;9.154;2023-03-16T04:24:36;-0.30;99.90
8459;DHT22;4266;48.816;9.154;2023-03-16T04:27:02;-0.20;99.90
8459;DHT22;4266;48.816;9.154;2023-03-16T04:29:28;-0.20;99.90
8459;DHT22;4266;48.816;9.154;2023-03-16T04:31:54;-0.20;99.90
8459;DHT22;4266;48.816;9.154;2023-03-16T04:34:19;-0.20;99.90
8459;DHT22;4266;48.816;9.154;2023-03-16T04:36:45;-0.20;99.90
8459;DHT22;4266;48.816;9.154;2023-03-16T04:39:11;-0.20;99.90
8459;DHT22;4266;48.816;9.154;2023-03-16T04:41:37;-0.20;99.90
8459;DHT22;4266;48.816;9.154;2023-03-16T04:44:03;-0.20;99.90
8459;DHT22;4266;48.816;9.154;2023-03-16T04:46:29;-0.20;99.90
8459;DHT22;4266;48.816;9.154;2023-03-16T04:48:55;-0.20;99.90
8459;DHT22;4266;48.816;9.154;2023-03-16T04:51:20;-0.20;99.90
8459;DHT22;4266;48.816;9.154;2023-03-16T04:53:46;-0.20;99.90
8459;DHT22;4266;48.816;9.154;2023-03-16T04:56:12;-0.30;99.90
8459;DHT22;4266;48.816;9.154;2023-03-16T04:58:38;-0.20;99.90
8459;DHT22;4266;48.816;9.154;2023-03-16T05:01:03;-0.20;99.90
8459;DHT22;4266;48.816;9.154;2023-03-16T05:03:29;-0.10;99.90
8459;DHT22;4266;48.816;9.154;2023-03-16T05:05:55;-0.20;99.90
8459;DHT22;4266;48.816;9.154;2023-03-16T05:08:21;-0.20;99.90
8459;DHT22;4266;48.816;9.154;2023-03-16T05:10:48;-0.20;99.90
8459;DHT22;4266;48.816;9.154;2023-03-16T05:13:14;-0.20;99.90
8459;DHT22;4266;48.816;9.154;2023-03-16T05:15:40;-0.30;99.90
8459;DHT22;4266;48.816;9.154;2023-03-16T05:18:06;-0.30;99.90
8459;DHT22;4266;48.816;9.154;2023-03-16T05:20:32;-0.30;99.90
8459;DHT22;4266;48.816;9.154;2023-03-16T05:22:58;-0.40;99.90
8459;DHT22;4266;48.816;9.154;2023-03-16T05:25:24;-0.40;99.90
8459;DHT22;4266;48.816;9.154;2023-03-16T05:27:50;-0.40;99.90
8459;DHT22;4266;48.816;9.154;2023-03-16T05:30:16;-0.50;99.90
8459;DHT22;4266;48.816;9.154;2023-03-16T05:32:42;-0.40;99.90
8459;DHT22;4266;48.816;9.154;2023-03-16T05:35:08;-0.40;99.90
8459;DHT22;4266;48.816;9.154;2023-03-16T05:37:34;-0.50;99.90
8459;DHT22;4266;48.816;9.154;2023-03-16T05:40:00;-0.50;99.90
8459;DHT22;4266;48.816;9.154;2023-03-16T05:42:27;-0.50;99.90
8459;DHT22;4266;48.816;9.154;2023-03-16T05:44:52;-0.50;99.90
8459;DHT22;4266;48.816;9.154;2023-03-16T05:47:18;-0.40;99.90
8459;DHT22;4266;48.816;9.154;2023-03-16T05:49:44;0.30;99.90
8459;DHT22;4266;48.816;9.154;2023-03-16T05:52:11;0.30;99.90
8459;DHT22;4266;48.816;9.154;2023-03-16T05:54:38;0.20;99.90
8459;DHT22;4266;48.816;9.154;2023-03-16T05:57:03;0.20;99.90
8459;DHT22;4266;48.816;9.154;2023-03-16T05:59:29;0.20;99.90
8459;DHT22;4266;48.816;9.154;2023-03-16T06:01:55;0.20;99.90
8459;DHT22;4266;48.816;9.154;2023-03-16T06:04:20;0.30;99.90
8459;DHT22;4266;48.816;9.154;2023-03-16T06:06:46;0.30;99.90
8459;DHT22;4266;48.816;9.154;2023-03-16T06:09:12;0.50;99.90
8459;DHT22;4266;48.816;9.154;2023-03-16T06:11:37;0.50;99.90
8459;DHT22;4266;48.816;9.154;2023-03-16T06:14:03;0.60;99.90
8459;DHT22;4266;48.816;9.154;2023-03-16T06:16:30;1.10;99.90
8459;DHT22;4266;48.816;9.154;2023-03-16T06:18:55;1.10;99.90
8459;DHT22;4266;48.816;9.154;2023-03-16T06:21:21;1.30;99.90
8459;DHT22;4266;48.816;9.154;2023-03-16T06:23:47;2.30;99.90
8459;DHT22;4266;48.816;9.154;2023-03-16T06:26:13;2.30;99.90
8459;DHT22;4266;48.816;9.154;2023-03-16T06:28:40;2.60;99.90
8459;DHT22;4266;48.816;9.154;2023-03-16T06:31:06;3.00;99.90
8459;DHT22;4266;48.816;9.154;2023-03-16T06:33:32;3.00;99.90
8459;DHT22;4266;48.816;9.154;2023-03-16T06:35:58;3.90;99.90
8459;DHT22;4266;48.816;9.154;2023-03-16T06:38:23;3.90;99.40
8459;DHT22;4266;48.816;9.154;2023-03-16T06:40:51;3.90;98.30
8459;DHT22;4266;48.816;9.154;2023-03-16T06:43:16;5.20;96.40
8459;DHT22;4266;48.816;9.154;2023-03-16T06:45:43;5.20;96.50
8459;DHT22;4266;48.816;9.154;2023-03-16T06:48:08;5.80;94.90
8459;DHT22;4266;48.816;9.154;2023-03-16T06:50:35;7.20;93.40
8459;DHT22;4266;48.816;9.154;2023-03-16T06:53:01;7.20;93.40
8459;DHT22;4266;48.816;9.154;2023-03-16T06:55:26;7.90;92.20
8459;DHT22;4266;48.816;9.154;2023-03-16T06:57:53;8.90;88.60
8459;DHT22;4266;48.816;9.154;2023-03-16T07:00:19;8.80;88.40
8459;DHT22;4266;48.816;9.154;2023-03-16T07:02:46;9.00;88.50
8459;DHT22;4266;48.816;9.154;2023-03-16T07:05:12;9.00;88.50
8459;DHT22;4266;48.816;9.154;2023-03-16T07:07:39;9.20;87.50
8459;DHT22;4266;48.816;9.154;2023-03-16T07:10:04;9.70;85.80
8459;DHT22;4266;48.816;9.154;2023-03-16T07:12:30;9.90;83.50
8459;DHT22;4266;48.816;9.154;2023-03-16T07:14:56;10.10;81.20
8459;DHT22;4266;48.816;9.154;2023-03-16T07:17:21;10.50;79.90
8459;DHT22;4266;48.816;9.154;2023-03-16T07:19:47;11.10;80.10
8459;DHT22;4266;48.816;9.154;2023-03-16T07:22:13;11.10;76.70
8459;DHT22;4266;48.816;9.154;2023-03-16T07:24:39;12.00;75.40
8459;DHT22;4266;48.816;9.154;2023-03-16T07:27:05;12.20;70.70
8459;DHT22;4266;48.816;9.154;2023-03-16T07:29:31;11.90;70.50
8459;DHT22;4266;48.816;9.154;2023-03-16T07:31:57;11.90;70.40
8459;DHT22;4266;48.816;9.154;2023-03-16T07:34:23;12.90;67.90
8459;DHT22;4266;48.816;9.154;2023-03-16T07:36:49;12.90;67.90
8459;DHT22;4266;48.816;9.154;2023-03-16T07:39:15;13.50;65.60
8459;DHT22;4266;48.816;9.154;2023-03-16T07:41:40;14.10;69.00
8459;DHT22;4266;48.816;9.154;2023-03-16T07:44:08;15.30;61.20
8459;DHT22;4266;48.816;9.154;2023-03-16T07:46:33;15.60;59.80
8459;DHT22;4266;48.816;9.154;2023-03-16T07:48:59;15.20;58.40
8459;DHT22;4266;48.816;9.154;2023-03-16T07:51:25;16.40;58.50
8459;DHT22;4266;48.816;9.154;2023-03-16T07:53:51;17.10;56.40
8459;DHT22;4266;48.816;9.154;2023-03-16T07:56:18;17.10;56.40
8459;DHT22;4266;48.816;9.154;2023-03-16T07:58:44;17.10;53.70
8459;DHT22;4266;48.816;9.154;2023-03-16T08:01:11;17.80;53.40
8459;DHT22;4266;48.816;9.154;2023-03-16T08:03:37;17.80;53.40
8459;DHT22;4266;48.816;9.154;2023-03-16T08:06:05;17.00;51.20
8459;DHT22;4266;48.816;9.154;2023-03-16T08:08:31;16.90;51.10
8459;DHT22;4266;48.816;9.154;2023-03-16T08:10:56;17.20;52.20
8459;DHT22;4266;48.816;9.154;2023-03-16T08:13:22;18.40;51.70
8459;DHT22;4266;48.816;9.154;2023-03-16T08:15:51;18.70;49.90
8459;DHT22;4266;48.816;9.154;2023-03-16T08:18:17;18.60;49.80
8459;DHT22;4266;48.816;9.154;2023-03-16T08:20:43;17.20;48.70
8459;DHT22;4266;48.816;9.154;2023-03-16T08:23:09;18.10;49.80
8459;DHT22;4266;48.816;9.154;2023-03-16T08:25:34;18.00;48.70
8459;DHT22;4266;48.816;9.154;2023-03-16T08:28:00;18.30;49.20
8459;DHT22;4266;48.816;9.154;2023-03-16T08:30:27;18.50;48.60
8459;DHT22;4266;48.816;9.154;2023-03-16T08:32:52;18.50;48.50
8459;DHT22;4266;48.816;9.154;2023-03-16T08:35:19;18.20;49.30
8459;DHT22;4266;48.816;9.154;2023-03-16T08:37:46;19.20;47.70
8459;DHT22;4266;48.816;9.154;2023-03-16T08:40:12;19.20;47.60
8459;DHT22;4266;48.816;9.154;2023-03-16T08:42:38;19.90;47.80
8459;DHT22;4266;48.816;9.154;2023-03-16T08:45:06;20.70;47.10
8459;DHT22;4266;48.816;9.154;2023-03-16T08:47:32;21.40;45.90
8459;DHT22;4266;48.816;9.154;2023-03-16T08:49:58;21.40;45.90
8459;DHT22;4266;48.816;9.154;2023-03-16T08:52:24;21.80;46.90
8459;DHT22;4266;48.816;9.154;2023-03-16T08:54:49;20.20;45.60
8459;DHT22;4266;48.816;9.154;2023-03-16T08:57:15;20.40;45.40
8459;DHT22;4266;48.816;9.154;2023-03-16T08:59:41;21.00;45.20
8459;DHT22;4266;48.816;9.154;2023-03-16T09:02:10;19.50;45.00
8459;DHT22;4266;48.816;9.154;2023-03-16T09:04:33;20.80;45.50
8459;DHT22;4266;48.816;9.154;2023-03-16T09:06:59;20.80;45.40
8459;DHT22;4266;48.816;9.154;2023-03-16T09:09:24;19.90;44.60
8459;DHT22;4266;48.816;9.154;2023-03-16T09:11:50;19.80;43.60
8459;DHT22;4266;48.816;9.154;2023-03-16T09:14:16;18.40;43.90
8459;DHT22;4266;48.816;9.154;2023-03-16T09:16:43;19.10;44.20
8459;DHT22;4266;48.816;9.154;2023-03-16T09:19:09;20.60;44.80
8459;DHT22;4266;48.816;9.154;2023-03-16T09:21:37;20.00;43.60
8459;DHT22;4266;48.816;9.154;2023-03-16T09:24:02;20.00;43.60
8459;DHT22;4266;48.816;9.154;2023-03-16T09:26:29;19.90;44.30
8459;DHT22;4266;48.816;9.154;2023-03-16T09:28:55;19.90;44.30
8459;DHT22;4266;48.816;9.154;2023-03-16T09:31:21;18.10;42.90
8459;DHT22;4266;48.816;9.154;2023-03-16T09:33:48;19.70;44.50
8459;DHT22;4266;48.816;9.154;2023-03-16T09:36:14;19.60;44.40
8459;DHT22;4266;48.816;9.154;2023-03-16T09:38:40;19.40;43.90
8459;DHT22;4266;48.816;9.154;2023-03-16T09:41:07;17.20;43.10
8459;DHT22;4266;48.816;9.154;2023-03-16T09:43:58;17.20;43.10
8459;DHT22;4266;48.816;9.154;2023-03-16T09:46:35;17.30;43.00
8459;DHT22;4266;48.816;9.154;2023-03-16T09:49:02;18.70;43.20
8459;DHT22;4266;48.816;9.154;2023-03-16T09:51:34;16.40;42.50
8459;DHT22;4266;48.816;9.154;2023-03-16T09:53:57;17.30;43.40
8459;DHT22;4266;48.816;9.154;2023-03-16T09:56:26;20.20;44.10
8459;DHT22;4266;48.816;9.154;2023-03-16T09:58:48;20.60;42.60
8459;DHT22;4266;48.816;9.154;2023-03-16T10:04:07;15.70;43.10
8459;DHT22;4266;48.816;9.154;2023-03-16T10:06:29;17.30;43.40
8459;DHT22;4266;48.816;9.154;2023-03-16T10:09:06;15.50;42.70
8459;DHT22;4266;48.816;9.154;2023-03-16T10:11:31;15.40;42.60
8459;DHT22;4266;48.816;9.154;2023-03-16T10:16:37;17.20;44.40
8459;DHT22;4266;48.816;9.154;2023-03-16T10:19:08;17.30;43.40
8459;DHT22;4266;48.816;9.154;2023-03-16T10:21:30;15.90;43.30
8459;DHT22;4266;48.816;9.154;2023-03-16T10:23:56;17.80;43.40
8459;DHT22;4266;48.816;9.154;2023-03-16T10:26:25;18.50;43.50
8459;DHT22;4266;48.816;9.154;2023-03-16T10:28:50;18.50;43.50
8459;DHT22;4266;48.816;9.154;2023-03-16T10:31:22;18.90;42.60
8459;DHT22;4266;48.816;9.154;2023-03-16T10:33:48;16.90;42.90
8459;DHT22;4266;48.816;9.154;2023-03-16T10:36:21;19.40;43.20
8459;DHT22;4266;48.816;9.154;2023-03-16T10:38:45;19.30;43.10
8459;DHT22;4266;48.816;9.154;2023-03-16T10:41:22;18.90;42.80
8459;DHT22;4266;48.816;9.154;2023-03-16T10:43:46;18.30;42.40
8459;DHT22;4266;48.816;9.154;2023-03-16T10:46:11;18.70;42.40
8459;DHT22;4266;48.816;9.154;2023-03-16T10:48:37;18.60;42.90
8459;DHT22;4266;48.816;9.154;2023-03-16T10:51:06;19.90;42.80
8459;DHT22;4266;48.816;9.154;2023-03-16T10:53:34;19.50;41.40
8459;DHT22;4266;48.816;9.154;2023-03-16T10:55:59;17.30;42.70
8459;DHT22;4266;48.816;9.154;2023-03-16T10:58:25;18.70;42.60
8459;DHT22;4266;48.816;9.154;2023-03-16T11:00:50;20.40;42.40
8459;DHT22;4266;48.816;9.154;2023-03-16T11:03:37;21.00;41.80
8459;DHT22;4266;48.816;9.154;2023-03-16T11:06:00;18.50;41.80
8459;DHT22;4266;48.816;9.154;2023-03-16T11:08:24;19.50;40.70
8459;DHT22;4266;48.816;9.154;2023-03-16T11:10:54;19.20;40.40
8459;DHT22;4266;48.816;9.154;2023-03-16T11:13:20;21.10;40.70
8459;DHT22;4266;48.816;9.154;2023-03-16T11:15:48;21.10;40.70
8459;DHT22;4266;48.816;9.154;2023-03-16T11:18:21;21.80;40.40
8459;DHT22;4266;48.816;9.154;2023-03-16T11:20:41;21.90;40.80
8459;DHT22;4266;48.816;9.154;2023-03-16T11:23:10;23.70;40.30
8459;DHT22;4266;48.816;9.154;2023-03-16T11:25:37;23.70;40.30
8459;DHT22;4266;48.816;9.154;2023-03-16T11:28:11;22.70;40.20
8459;DHT22;4266;48.816;9.154;2023-03-16T11:30:41;21.90;39.00
8459;DHT22;4266;48.816;9.154;2023-03-16T11:33:08;21.90;39.00
8459;DHT22;4266;48.816;9.154;2023-03-16T11:38:17;23.70;39.50
8459;DHT22;4266;48.816;9.154;2023-03-16T11:40:54;23.10;38.70
8459;DHT22;4266;48.816;9.154;2023-03-16T11:43:26;22.30;38.40
8459;DHT22;4266;48.816;9.154;2023-03-16T11:48:35;24.00;37.90
8459;DHT22;4266;48.816;9.154;2023-03-16T11:51:23;24.30;38.50
8459;DHT22;4266;48.816;9.154;2023-03-16T11:54:05;24.30;38.50
8459;DHT22;4266;48.816;9.154;2023-03-16T11:56:32;21.80;37.90
8459;DHT22;4266;48.816;9.154;2023-03-16T11:59:36;21.10;37.90
8459;DHT22;4266;48.816;9.154;2023-03-16T12:02:02;21.00;37.40
8459;DHT22;4266;48.816;9.154;2023-03-16T12:07:48;20.00;37.80
8459;DHT22;4266;48.816;9.154;2023-03-16T12:09:57;20.00;37.80
8459;DHT22;4266;48.816;9.154;2023-03-16T12:12:39;18.90;38.40
8459;DHT22;4266;48.816;9.154;2023-03-16T12:18:07;21.10;38.50
8459;DHT22;4266;48.816;9.154;2023-03-16T12:20:30;21.10;38.50
8459;DHT22;4266;48.816;9.154;2023-03-16T12:22:58;21.90;37.30
8459;DHT22;4266;48.816;9.154;2023-03-16T12:25:25;21.90;37.30
8459;DHT22;4266;48.816;9.154;2023-03-16T12:27:52;22.40;37.50
8459;DHT22;4266;48.816;9.154;2023-03-16T12:32:59;21.20;36.70
8459;DHT22;4266;48.816;9.154;2023-03-16T12:35:27;21.00;37.20
8459;DHT22;4266;48.816;9.154;2023-03-16T12:37:56;21.40;37.90
8459;DHT22;4266;48.816;9.154;2023-03-16T12:40:27;20.40;37.10
8459;DHT22;4266;48.816;9.154;2023-03-16T12:45:35;18.70;37.90
8459;DHT22;4266;48.816;9.154;2023-03-16T12:48:06;18.60;37.80
8459;DHT22;4266;48.816;9.154;2023-03-16T12:50:28;17.60;37.50
8459;DHT22;4266;48.816;9.154;2023-03-16T12:52:53;17.30;38.20
8459;DHT22;4266;48.816;9.154;2023-03-16T12:58:07;18.80;37.70
8459;DHT22;4266;48.816;9.154;2023-03-16T13:00:34;18.40;38.20
8459;DHT22;4266;48.816;9.154;2023-03-16T13:03:00;16.80;38.00
8459;DHT22;4266;48.816;9.154;2023-03-16T13:05:29;16.80;38.00
8459;DHT22;4266;48.816;9.154;2023-03-16T13:08:03;17.60;38.80
8459;DHT22;4266;48.816;9.154;2023-03-16T13:10:19;17.60;38.80
8459;DHT22;4266;48.816;9.154;2023-03-16T13:12:45;18.80;38.50
8459;DHT22;4266;48.816;9.154;2023-03-16T13:15:27;18.10;37.30
8459;DHT22;4266;48.816;9.154;2023-03-16T13:18:17;18.10;37.30
8459;DHT22;4266;48.816;9.154;2023-03-16T13:20:31;16.80;37.90
8459;DHT22;4266;48.816;9.154;2023-03-16T13:23:19;18.20;38.30
8459;DHT22;4266;48.816;9.154;2023-03-16T13:25:44;18.20;38.30
8459;DHT22;4266;48.816;9.154;2023-03-16T13:28:12;14.40;38.70
8459;DHT22;4266;48.816;9.154;2023-03-16T13:30:39;14.30;38.60
8459;DHT22;4266;48.816;9.154;2023-03-16T13:33:06;14.20;39.10
8459;DHT22;4266;48.816;9.154;2023-03-16T13:35:29;14.30;38.80
8459;DHT22;4266;48.816;9.154;2023-03-16T13:38:02;13.70;39.00
8459;DHT22;4266;48.816;9.154;2023-03-16T13:40:27;13.70;39.00
8459;DHT22;4266;48.816;9.154;2023-03-16T13:42:52;14.10;39.50
8459;DHT22;4266;48.816;9.154;2023-03-16T13:45:21;13.80;39.30
8459;DHT22;4266;48.816;9.154;2023-03-16T13:47:46;13.20;39.50
8459;DHT22;4266;48.816;9.154;2023-03-16T13:50:12;13.10;39.50
8459;DHT22;4266;48.816;9.154;2023-03-16T13:52:38;12.80;39.70
8459;DHT22;4266;48.816;9.154;2023-03-16T13:55:12;13.10;40.30
8459;DHT22;4266;48.816;9.154;2023-03-16T13:57:35;13.20;39.90
8459;DHT22;4266;48.816;9.154;2023-03-16T14:00:02;12.80;39.90
8459;DHT22;4266;48.816;9.154;2023-03-16T14:02:25;13.10;40.10
8459;DHT22;4266;48.816;9.154;2023-03-16T14:04:52;13.60;39.80
8459;DHT22;4266;48.816;9.154;2023-03-16T14:07:18;13.50;39.70
8459;DHT22;4266;48.816;9.154;2023-03-16T14:09:43;13.30;40.10
8459;DHT22;4266;48.816;9.154;2023-03-16T14:12:12;13.40;40.40
8459;DHT22;4266;48.816;9.154;2023-03-16T14:14:37;13.40;39.80
8459;DHT22;4266;48.816;9.154;2023-03-16T14:17:07;12.90;40.00
8459;DHT22;4266;48.816;9.154;2023-03-16T14:19:28;12.80;40.10
8459;DHT22;4266;48.816;9.154;2023-03-16T14:21:54;13.10;40.20
8459;DHT22;4266;48.816;9.154;2023-03-16T14:24:32;12.60;40.10
8459;DHT22;4266;48.816;9.154;2023-03-16T14:27:08;12.30;40.20
8459;DHT22;4266;48.816;9.154;2023-03-16T14:29:26;12.20;40.00
8459;DHT22;4266;48.816;9.154;2023-03-16T14:31:51;11.90;39.60
8459;DHT22;4266;48.816;9.154;2023-03-16T14:34:26;12.20;40.60
8459;DHT22;4266;48.816;9.154;2023-03-16T14:36:47;12.20;40.60
8459;DHT22;4266;48.816;9.154;2023-03-16T14:39:14;12.10;40.70
8459;DHT22;4266;48.816;9.154;2023-03-16T14:41:39;12.10;40.70
8459;DHT22;4266;48.816;9.154;2023-03-16T14:44:05;12.40;40.30
8459;DHT22;4266;48.816;9.154;2023-03-16T14:46:32;12.30;39.90
8459;DHT22;4266;48.816;9.154;2023-03-16T14:49:02;12.10;39.80
8459;DHT22;4266;48.816;9.154;2023-03-16T14:51:27;12.10;40.30
8459;DHT22;4266;48.816;9.154;2023-03-16T14:53:53;12.00;40.20
8459;DHT22;4266;48.816;9.154;2023-03-16T14:56:19;12.20;40.10
8459;DHT22;4266;48.816;9.154;2023-03-16T14:58:45;12.20;40.10
8459;DHT22;4266;48.816;9.154;2023-03-16T15:01:12;12.10;39.70
8459;DHT22;4266;48.816;9.154;2023-03-16T15:03:37;12.10;39.80
8459;DHT22;4266;48.816;9.154;2023-03-16T15:06:03;12.30;40.10
8459;DHT22;4266;48.816;9.154;2023-03-16T15:08:30;12.30;39.30
8459;DHT22;4266;48.816;9.154;2023-03-16T15:10:56;12.40;39.80
8459;DHT22;4266;48.816;9.154;2023-03-16T15:13:22;12.40;39.80
8459;DHT22;4266;48.816;9.154;2023-03-16T15:15:53;12.40;39.60
8459;DHT22;4266;48.816;9.154;2023-03-16T15:18:19;12.30;39.30
8459;DHT22;4266;48.816;9.154;2023-03-16T15:20:45;12.40;39.60
8459;DHT22;4266;48.816;9.154;2023-03-16T15:23:12;12.30;40.20
8459;DHT22;4266;48.816;9.154;2023-03-16T15:25:38;12.30;40.20
8459;DHT22;4266;48.816;9.154;2023-03-16T15:28:09;12.40;40.20
8459;DHT22;4266;48.816;9.154;2023-03-16T15:30:28;12.40;40.80
8459;DHT22;4266;48.816;9.154;2023-03-16T15:32:54;12.20;41.10
8459;DHT22;4266;48.816;9.154;2023-03-16T15:35:21;12.30;41.10
8459;DHT22;4266;48.816;9.154;2023-03-16T15:37:46;12.30;41.10
8459;DHT22;4266;48.816;9.154;2023-03-16T15:40:16;12.20;41.00
8459;DHT22;4266;48.816;9.154;2023-03-16T15:42:41;12.20;41.00
8459;DHT22;4266;48.816;9.154;2023-03-16T15:45:09;12.20;41.10
8459;DHT22;4266;48.816;9.154;2023-03-16T15:47:34;12.20;41.10
8459;DHT22;4266;48.816;9.154;2023-03-16T15:50:00;12.30;40.80
8459;DHT22;4266;48.816;9.154;2023-03-16T15:52:29;12.30;40.80
8459;DHT22;4266;48.816;9.154;2023-03-16T15:54:51;12.10;40.50
8459;DHT22;4266;48.816;9.154;2023-03-16T15:57:17;12.00;40.80
8459;DHT22;4266;48.816;9.154;2023-03-16T15:59:44;12.10;41.20
8459;DHT22;4266;48.816;9.154;2023-03-16T16:02:20;12.10;41.20
8459;DHT22;4266;48.816;9.154;2023-03-16T16:04:38;12.00;39.90
8459;DHT22;4266;48.816;9.154;2023-03-16T16:07:05;11.90;39.80
8459;DHT22;4266;48.816;9.154;2023-03-16T16:09:29;12.00;40.10
8459;DHT22;4266;48.816;9.154;2023-03-16T16:11:55;12.00;39.30
8459;DHT22;4266;48.816;9.154;2023-03-16T16:14:22;12.00;39.30
8459;DHT22;4266;48.816;9.154;2023-03-16T16:16:47;12.00;39.10
8459;DHT22;4266;48.816;9.154;2023-03-16T16:19:14;11.90;39.30
8459;DHT22;4266;48.816;9.154;2023-03-16T16:21:39;11.90;39.20
8459;DHT22;4266;48.816;9.154;2023-03-16T16:24:05;11.80;39.00
8459;DHT22;4266;48.816;9.154;2023-03-16T16:26:33;11.80;39.30